sensor_id;sensor_type;location;lat;lon;timestamp;P1;durP1;ratioP1;P2;durP2;ratioP2
43901;SDS011;29562;40.390;-3.706;2022-10-24T00:07:52;4.97;;;2.70;;
43901;SDS011;29562;40.390;-3.706;2022-10-24T00:17:54;6.20;;;2.63;;
43901;SDS011;29562;40.390;-3.706;2022-10-24T00:27:56;5.65;;;2.60;;
43901;SDS011;29562;40.390;-3.706;2022-10-24T00:37:58;6.68;;;2.60;;
43901;SDS011;29562;40.390;-3.706;2022-10-24T00:48:00;6.57;;;2.45;;
43901;SDS011;29562;40.390;-3.706;2022-10-24T00:58:02;6.13;;;2.28;;
43901;SDS011;29562;40.390;-3.706;2022-10-24T01:18:23;5.35;;;2.97;;
43901;SDS011;29562;40.390;-3.706;2022-10-24T01:28:31;6.93;;;2.78;;
43901;SDS011;29562;40.390;-3.706;2022-10-24T01:38:41;7.18;;;2.70;;
43901;SDS011;29562;40.390;-3.706;2022-10-24T01:48:48;6.97;;;3.13;;
43901;SDS011;29562;40.390;-3.706;2022-10-24T01:58:52;9.95;;;3.22;;
43901;SDS011;29562;40.390;-3.706;2022-10-24T02:08:56;6.13;;;3.28;;
43901;SDS011;29562;40.390;-3.706;2022-10-24T02:18:59;7.38;;;3.10;;
43901;SDS011;29562;40.390;-3.706;2022-10-24T02:29:06;8.27;;;3.15;;
43901;SDS011;29562;40.390;-3.706;2022-10-24T02:39:09;9.43;;;3.85;;
43901;SDS011;29562;40.390;-3.706;2022-10-24T02:49:12;7.15;;;3.20;;
43901;SDS011;29562;40.390;-3.706;2022-10-24T02:59:14;8.60;;;3.28;;
43901;SDS011;29562;40.390;-3.706;2022-10-24T03:09:15;6.95;;;3.47;;
43901;SDS011;29562;40.390;-3.706;2022-10-24T03:19:17;9.90;;;3.53;;
43901;SDS011;29562;40.390;-3.706;2022-10-24T03:29:19;8.40;;;3.63;;
43901;SDS011;29562;40.390;-3.706;2022-10-24T03:39:21;6.72;;;3.30;;
43901;SDS011;29562;40.390;-3.706;2022-10-24T03:49:23;8.07;;;3.35;;
43901;SDS011;29562;40.390;-3.706;2022-10-24T03:59:25;6.35;;;2.95;;
43901;SDS011;29562;40.390;-3.706;2022-10-24T04:09:27;5.72;;;3.47;;
43901;SDS011;29562;40.390;-3.706;2022-10-24T04:19:29;5.32;;;3.28;;
43901;SDS011;29562;40.390;-3.706;2022-10-24T04:29:32;5.55;;;2.88;;
43901;SDS011;29562;40.390;-3.706;2022-10-24T04:39:34;4.57;;;3.03;;
43901;SDS011;29562;40.390;-3.706;2022-10-24T04:49:40;6.15;;;3.38;;
43901;SDS011;29562;40.390;-3.706;2022-10-24T04:59:41;4.38;;;2.90;;
43901;SDS011;29562;40.390;-3.706;2022-10-24T05:09:43;6.35;;;3.35;;
43901;SDS011;29562;40.390;-3.706;2022-10-24T05:19:45;6.88;;;3.40;;
43901;SDS011;29562;40.390;-3.706;2022-10-24T05:29:48;7.30;;;3.28;;
43901;SDS011;29562;40.390;-3.706;2022-10-24T05:39:50;5.45;;;3.75;;
43901;SDS011;29562;40.390;-3.706;2022-10-24T05:49:51;7.45;;;4.30;;
43901;SDS011;29562;40.390;-3.706;2022-10-24T05:59:53;7.07;;;3.85;;
43901;SDS011;29562;40.390;-3.706;2022-10-24T06:09:55;5.97;;;3.42;;
43901;SDS011;29562;40.390;-3.706;2022-10-24T06:19:57;9.70;;;5.10;;
43901;SDS011;29562;40.390;-3.706;2022-10-24T06:29:59;8.65;;;3.65;;
43901;SDS011;29562;40.390;-3.706;2022-10-24T06:40:01;11.15;;;4.47;;
43901;SDS011;29562;40.390;-3.706;2022-10-24T06:50:03;7.65;;;4.15;;
43901;SDS011;29562;40.390;-3.706;2022-10-24T07:00:05;12.02;;;5.78;;
43901;SDS011;29562;40.390;-3.706;2022-10-24T07:10:09;10.77;;;6.40;;
43901;SDS011;29562;40.390;-3.706;2022-10-24T07:20:12;10.43;;;5.15;;
43901;SDS011;29562;40.390;-3.706;2022-10-24T07:30:15;7.10;;;3.65;;
43901;SDS011;29562;40.390;-3.706;2022-10-24T07:40:18;8.07;;;4.15;;
43901;SDS011;29562;40.390;-3.706;2022-10-24T07:50:20;7.97;;;3.58;;
43901;SDS011;29562;40.390;-3.706;2022-10-24T08:00:22;8.35;;;4.03;;
43901;SDS011;29562;40.390;-3.706;2022-10-24T08:10:24;8.52;;;4.25;;
43901;SDS011;29562;40.390;-3.706;2022-10-24T08:20:26;12.82;;;5.07;;
43901;SDS011;29562;40.390;-3.706;2022-10-24T08:30:28;9.30;;;4.63;;
43901;SDS011;29562;40.390;-3.706;2022-10-24T08:40:30;10.95;;;4.20;;
43901;SDS011;29562;40.390;-3.706;2022-10-24T08:50:32;15.05;;;6.38;;
43901;SDS011;29562;40.390;-3.706;2022-10-24T09:00:39;5.68;;;2.75;;
43901;SDS011;29562;40.390;-3.706;2022-10-24T09:10:58;8.85;;;3.95;;
43901;SDS011;29562;40.390;-3.706;2022-10-24T09:21:00;10.32;;;3.38;;
43901;SDS011;29562;40.390;-3.706;2022-10-24T09:31:04;8.25;;;3.42;;
43901;SDS011;29562;40.390;-3.706;2022-10-24T09:41:24;12.93;;;4.43;;
43901;SDS011;29562;40.390;-3.706;2022-10-24T10:01:29;15.50;;;4.57;;
43901;SDS011;29562;40.390;-3.706;2022-10-24T10:11:31;6.43;;;2.35;;
43901;SDS011;29562;40.390;-3.706;2022-10-24T10:21:51;9.95;;;4.38;;
43901;SDS011;29562;40.390;-3.706;2022-10-24T10:32:12;6.22;;;2.35;;
43901;SDS011;29562;40.390;-3.706;2022-10-24T10:52:40;6.78;;;1.85;;
43901;SDS011;29562;40.390;-3.706;2022-10-24T11:12:56;7.47;;;1.40;;
43901;SDS011;29562;40.390;-3.706;2022-10-24T11:23:04;6.53;;;1.42;;
43901;SDS011;29562;40.390;-3.706;2022-10-24T11:33:08;6.45;;;1.75;;
43901;SDS011;29562;40.390;-3.706;2022-10-24T11:43:28;8.30;;;2.38;;
43901;SDS011;29562;40.390;-3.706;2022-10-24T12:03:39;5.82;;;1.40;;
43901;SDS011;29562;40.390;-3.706;2022-10-24T12:23:54;7.32;;;1.60;;
43901;SDS011;29562;40.390;-3.706;2022-10-24T12:44:32;7.30;;;1.73;;
43901;SDS011;29562;40.390;-3.706;2022-10-24T12:54:37;9.55;;;1.70;;
43901;SDS011;29562;40.390;-3.706;2022-10-24T13:24:53;8.30;;;1.85;;
43901;SDS011;29562;40.390;-3.706;2022-10-24T13:34:56;6.05;;;1.80;;
43901;SDS011;29562;40.390;-3.706;2022-10-24T13:45:04;6.10;;;1.77;;
43901;SDS011;29562;40.390;-3.706;2022-10-24T14:05:22;8.43;;;1.35;;
43901;SDS011;29562;40.390;-3.706;2022-10-24T14:15:30;6.72;;;1.50;;
43901;SDS011;29562;40.390;-3.706;2022-10-24T14:25:34;6.25;;;1.70;;
43901;SDS011;29562;40.390;-3.706;2022-10-24T14:35:37;7.40;;;1.63;;
43901;SDS011;29562;40.390;-3.706;2022-10-24T14:45:39;5.70;;;1.33;;
43901;SDS011;29562;40.390;-3.706;2022-10-24T14:55:41;8.73;;;1.80;;
43901;SDS011;29562;40.390;-3.706;2022-10-24T15:06:22;4.35;;;1.30;;
43901;SDS011;29562;40.390;-3.706;2022-10-24T15:26:28;4.82;;;1.30;;
43901;SDS011;29562;40.390;-3.706;2022-10-24T15:36:32;3.28;;;1.40;;
43901;SDS011;29562;40.390;-3.706;2022-10-24T15:46:35;6.47;;;0.93;;
43901;SDS011;29562;40.390;-3.706;2022-10-24T15:56:37;3.42;;;0.90;;
43901;SDS011;29562;40.390;-3.706;2022-10-24T16:06:39;2.63;;;1.17;;
43901;SDS011;29562;40.390;-3.706;2022-10-24T16:16:41;3.03;;;1.05;;
43901;SDS011;29562;40.390;-3.706;2022-10-24T16:26:43;8.35;;;2.17;;
43901;SDS011;29562;40.390;-3.706;2022-10-24T16:36:45;6.60;;;1.73;;
43901;SDS011;29562;40.390;-3.706;2022-10-24T16:46:47;5.07;;;1.92;;
43901;SDS011;29562;40.390;-3.706;2022-10-24T16:56:49;11.18;;;1.90;;
43901;SDS011;29562;40.390;-3.706;2022-10-24T17:06:52;9.35;;;2.13;;
43901;SDS011;29562;40.390;-3.706;2022-10-24T17:16:54;9.20;;;1.95;;
43901;SDS011;29562;40.390;-3.706;2022-10-24T17:26:56;11.45;;;2.95;;
43901;SDS011;29562;40.390;-3.706;2022-10-24T17:37:02;6.75;;;2.10;;
43901;SDS011;29562;40.390;-3.706;2022-10-24T17:47:05;8.13;;;2.72;;
43901;SDS011;29562;40.390;-3.706;2022-10-24T17:57:07;10.57;;;2.40;;
43901;SDS011;29562;40.390;-3.706;2022-10-24T18:07:09;10.60;;;2.65;;
43901;SDS011;29562;40.390;-3.706;2022-10-24T18:17:11;9.18;;;3.05;;
43901;SDS011;29562;40.390;-3.706;2022-10-24T18:27:13;8.43;;;4.03;;
43901;SDS011;29562;40.390;-3.706;2022-10-24T18:37:15;8.57;;;2.88;;
43901;SDS011;29562;40.390;-3.706;2022-10-24T18:47:17;7.65;;;2.15;;
43901;SDS011;29562;40.390;-3.706;2022-10-24T19:07:21;6.53;;;2.03;;
43901;SDS011;29562;40.390;-3.706;2022-10-24T19:17:23;8.80;;;2.75;;
43901;SDS011;29562;40.390;-3.706;2022-10-24T19:27:25;6.93;;;1.90;;
43901;SDS011;29562;40.390;-3.706;2022-10-24T19:37:28;7.35;;;2.17;;
43901;SDS011;29562;40.390;-3.706;2022-10-24T19:47:30;9.18;;;2.70;;
43901;SDS011;29562;40.390;-3.706;2022-10-24T19:57:32;7.25;;;2.60;;
43901;SDS011;29562;40.390;-3.706;2022-10-24T20:07:37;9.88;;;3.15;;
43901;SDS011;29562;40.390;-3.706;2022-10-24T20:17:39;11.80;;;3.47;;
43901;SDS011;29562;40.390;-3.706;2022-10-24T20:27:41;13.52;;;3.50;;
43901;SDS011;29562;40.390;-3.706;2022-10-24T20:37:42;9.25;;;2.53;;
43901;SDS011;29562;40.390;-3.706;2022-10-24T20:47:44;10.45;;;4.00;;
43901;SDS011;29562;40.390;-3.706;2022-10-24T20:57:46;10.93;;;4.60;;
43901;SDS011;29562;40.390;-3.706;2022-10-24T21:07:48;13.02;;;3.50;;
43901;SDS011;29562;40.390;-3.706;2022-10-24T21:17:51;8.23;;;3.05;;
43901;SDS011;29562;40.390;-3.706;2022-10-24T21:27:53;9.73;;;2.25;;
43901;SDS011;29562;40.390;-3.706;2022-10-24T21:37:55;9.70;;;2.40;;
43901;SDS011;29562;40.390;-3.706;2022-10-24T21:47:57;8.40;;;3.30;;
43901;SDS011;29562;40.390;-3.706;2022-10-24T21:58:00;10.52;;;2.80;;
43901;SDS011;29562;40.390;-3.706;2022-10-24T22:08:02;6.55;;;2.97;;
43901;SDS011;29562;40.390;-3.706;2022-10-24T22:18:04;7.72;;;2.70;;
43901;SDS011;29562;40.390;-3.706;2022-10-24T22:28:07;8.98;;;3.45;;
43901;SDS011;29562;40.390;-3.706;2022-10-24T22:38:09;5.72;;;2.33;;
43901;SDS011;29562;40.390;-3.706;2022-10-24T22:48:21;11.70;;;3.20;;
43901;SDS011;29562;40.390;-3.706;2022-10-24T22:58:26;9.77;;;2.65;;
43901;SDS011;29562;40.390;-3.706;2022-10-24T23:08:36;7.45;;;2.42;;
43901;SDS011;29562;40.390;-3.706;2022-10-24T23:18:38;6.32;;;2.10;;
43901;SDS011;29562;40.390;-3.706;2022-10-24T23:38:45;4.82;;;1.55;;
43901;SDS011;29562;40.390;-3.706;2022-10-24T23:58:50;4.57;;;1.38;;
